sensor_id;sensor_type;location;lat;lon;timestamp;temperature;humidity
67890;DHT22;54685;52.082;5.426;2023-01-08T00:01:57;9.80;99.90
67890;DHT22;54685;52.082;5.426;2023-01-08T00:04:24;9.60;99.90
67890;DHT22;54685;52.082;5.426;2023-01-08T00:06:51;9.60;99.90
67890;DHT22;54685;52.082;5.426;2023-01-08T00:09:17;9.60;99.90
67890;DHT22;54685;52.082;5.426;2023-01-08T00:11:44;9.60;99.90
67890;DHT22;54685;52.082;5.426;2023-01-08T00:14:11;9.60;99.90
67890;DHT22;54685;52.082;5.426;2023-01-08T00:16:38;9.60;99.90
67890;DHT22;54685;52.082;5.426;2023-01-08T00:19:05;9.50;99.90
67890;DHT22;54685;52.082;5.426;2023-01-08T00:21:31;9.50;99.90
67890;DHT22;54685;52.082;5.426;2023-01-08T00:23:58;9.40;99.90
67890;DHT22;54685;52.082;5.426;2023-01-08T00:26:25;9.40;99.90
67890;DHT22;54685;52.082;5.426;2023-01-08T00:28:53;9.30;99.90
67890;DHT22;54685;52.082;5.426;2023-01-08T00:31:19;9.20;99.90
67890;DHT22;54685;52.082;5.426;2023-01-08T00:33:46;9.20;99.90
67890;DHT22;54685;52.082;5.426;2023-01-08T00:36:15;9.10;99.90
67890;DHT22;54685;52.082;5.426;2023-01-08T00:38:43;9.10;99.90
67890;DHT22;54685;52.082;5.426;2023-01-08T00:41:11;9.10;99.90
67890;DHT22;54685;52.082;5.426;2023-01-08T00:43:38;9.10;99.90
67890;DHT22;54685;52.082;5.426;2023-01-08T00:46:06;9.00;99.90
67890;DHT22;54685;52.082;5.426;2023-01-08T00:48:34;9.00;99.90
67890;DHT22;54685;52.082;5.426;2023-01-08T00:51:05;9.00;99.90
67890;DHT22;54685;52.082;5.426;2023-01-08T00:53:33;9.00;99.90
67890;DHT22;54685;52.082;5.426;2023-01-08T00:56:02;9.00;99.90
67890;DHT22;54685;52.082;5.426;2023-01-08T00:58:29;9.00;99.90
67890;DHT22;54685;52.082;5.426;2023-01-08T01:00:56;9.00;99.90
67890;DHT22;54685;52.082;5.426;2023-01-08T01:03:23;9.10;99.90
67890;DHT22;54685;52.082;5.426;2023-01-08T01:05:59;9.10;99.90
67890;DHT22;54685;52.082;5.426;2023-01-08T01:08:26;9.10;99.90
67890;DHT22;54685;52.082;5.426;2023-01-08T01:10:53;9.20;99.90
67890;DHT22;54685;52.082;5.426;2023-01-08T01:13:20;9.20;99.90
67890;DHT22;54685;52.082;5.426;2023-01-08T01:15:56;9.30;99.90
67890;DHT22;54685;52.082;5.426;2023-01-08T01:18:23;9.40;99.90
67890;DHT22;54685;52.082;5.426;2023-01-08T01:20:50;9.40;99.90
67890;DHT22;54685;52.082;5.426;2023-01-08T01:23:17;9.40;99.90
67890;DHT22;54685;52.082;5.426;2023-01-08T01:25:44;9.50;99.90
67890;DHT22;54685;52.082;5.426;2023-01-08T01:28:11;9.50;99.90
67890;DHT22;54685;52.082;5.426;2023-01-08T01:30:38;9.50;99.90
67890;DHT22;54685;52.082;5.426;2023-01-08T01:33:04;9.50;99.90
67890;DHT22;54685;52.082;5.426;2023-01-08T01:35:31;9.50;99.90
67890;DHT22;54685;52.082;5.426;2023-01-08T01:37:58;9.50;99.90
67890;DHT22;54685;52.082;5.426;2023-01-08T01:40:25;9.50;99.90
67890;DHT22;54685;52.082;5.426;2023-01-08T01:42:51;9.50;99.90
67890;DHT22;54685;52.082;5.426;2023-01-08T01:45:25;9.50;99.90
67890;DHT22;54685;52.082;5.426;2023-01-08T01:48:03;9.50;99.90
67890;DHT22;54685;52.082;5.426;2023-01-08T01:50:47;9.50;99.90
67890;DHT22;54685;52.082;5.426;2023-01-08T01:55:47;9.50;99.90
67890;DHT22;54685;52.082;5.426;2023-01-08T01:58:16;9.50;99.90
67890;DHT22;54685;52.082;5.426;2023-01-08T02:00:45;9.40;99.90
67890;DHT22;54685;52.082;5.426;2023-01-08T02:03:14;9.30;99.90
67890;DHT22;54685;52.082;5.426;2023-01-08T02:05:54;9.30;99.90
67890;DHT22;54685;52.082;5.426;2023-01-08T02:11:11;9.10;99.90
67890;DHT22;54685;52.082;5.426;2023-01-08T02:13:41;8.90;99.90
67890;DHT22;54685;52.082;5.426;2023-01-08T02:16:25;8.90;99.90
67890;DHT22;54685;52.082;5.426;2023-01-08T02:19:02;8.80;99.90
67890;DHT22;54685;52.082;5.426;2023-01-08T02:21:32;8.80;99.90
67890;DHT22;54685;52.082;5.426;2023-01-08T02:24:14;8.70;99.90
67890;DHT22;54685;52.082;5.426;2023-01-08T02:26:44;8.70;99.90
67890;DHT22;54685;52.082;5.426;2023-01-08T02:29:15;8.70;99.90
67890;DHT22;54685;52.082;5.426;2023-01-08T02:31:43;8.60;99.90
67890;DHT22;54685;52.082;5.426;2023-01-08T02:34:11;8.60;99.90
67890;DHT22;54685;52.082;5.426;2023-01-08T02:36:53;8.60;99.90
67890;DHT22;54685;52.082;5.426;2023-01-08T02:47:31;8.60;99.90
67890;DHT22;54685;52.082;5.426;2023-01-08T02:50:37;8.60;99.90
67890;DHT22;54685;52.082;5.426;2023-01-08T02:53:24;8.60;99.90
67890;DHT22;54685;52.082;5.426;2023-01-08T02:56:02;8.60;99.90
67890;DHT22;54685;52.082;5.426;2023-01-08T02:58:32;8.60;99.90
67890;DHT22;54685;52.082;5.426;2023-01-08T03:01:06;8.60;99.90
67890;DHT22;54685;52.082;5.426;2023-01-08T03:03:34;8.60;99.90
67890;DHT22;54685;52.082;5.426;2023-01-08T03:06:05;8.60;99.90
67890;DHT22;54685;52.082;5.426;2023-01-08T03:08:35;8.70;99.90
67890;DHT22;54685;52.082;5.426;2023-01-08T03:11:11;8.70;99.90
67890;DHT22;54685;52.082;5.426;2023-01-08T03:16:17;8.70;99.90
67890;DHT22;54685;52.082;5.426;2023-01-08T03:18:54;8.70;99.90
67890;DHT22;54685;52.082;5.426;2023-01-08T03:21:23;8.70;99.90
67890;DHT22;54685;52.082;5.426;2023-01-08T03:23:50;8.70;99.90
67890;DHT22;54685;52.082;5.426;2023-01-08T03:26:20;8.70;99.90
67890;DHT22;54685;52.082;5.426;2023-01-08T03:28:52;8.70;99.90
67890;DHT22;54685;52.082;5.426;2023-01-08T03:31:21;8.70;99.90
67890;DHT22;54685;52.082;5.426;2023-01-08T03:33:49;8.70;99.90
67890;DHT22;54685;52.082;5.426;2023-01-08T03:36:19;8.70;99.90
67890;DHT22;54685;52.082;5.426;2023-01-08T03:39:02;8.70;99.90
67890;DHT22;54685;52.082;5.426;2023-01-08T03:41:31;8.70;99.90
67890;DHT22;54685;52.082;5.426;2023-01-08T03:44:01;8.70;99.90
67890;DHT22;54685;52.082;5.426;2023-01-08T03:46:33;8.60;99.90
67890;DHT22;54685;52.082;5.426;2023-01-08T03:49:01;8.60;99.90
67890;DHT22;54685;52.082;5.426;2023-01-08T03:51:42;8.70;99.90
67890;DHT22;54685;52.082;5.426;2023-01-08T03:54:16;8.70;99.90
67890;DHT22;54685;52.082;5.426;2023-01-08T03:56:44;8.60;99.90
67890;DHT22;54685;52.082;5.426;2023-01-08T03:59:12;8.60;99.90
67890;DHT22;54685;52.082;5.426;2023-01-08T04:01:39;8.60;99.90
67890;DHT22;54685;52.082;5.426;2023-01-08T04:04:07;8.60;99.90
67890;DHT22;54685;52.082;5.426;2023-01-08T04:06:34;8.60;99.90
67890;DHT22;54685;52.082;5.426;2023-01-08T04:09:01;8.60;99.90
67890;DHT22;54685;52.082;5.426;2023-01-08T04:11:28;8.50;99.90
67890;DHT22;54685;52.082;5.426;2023-01-08T04:13:55;8.50;99.90
67890;DHT22;54685;52.082;5.426;2023-01-08T04:16:22;8.50;99.90
67890;DHT22;54685;52.082;5.426;2023-01-08T04:18:49;8.60;99.90
67890;DHT22;54685;52.082;5.426;2023-01-08T04:21:16;8.50;99.90
67890;DHT22;54685;52.082;5.426;2023-01-08T04:23:43;8.50;99.90
67890;DHT22;54685;52.082;5.426;2023-01-08T04:26:09;8.50;99.90
67890;DHT22;54685;52.082;5.426;2023-01-08T04:28:36;8.50;99.90
67890;DHT22;54685;52.082;5.426;2023-01-08T04:31:05;8.50;99.90
67890;DHT22;54685;52.082;5.426;2023-01-08T04:33:33;8.50;99.90
67890;DHT22;54685;52.082;5.426;2023-01-08T04:36:00;8.50;99.90
67890;DHT22;54685;52.082;5.426;2023-01-08T04:38:27;8.40;99.90
67890;DHT22;54685;52.082;5.426;2023-01-08T04:40:58;8.40;99.90
67890;DHT22;54685;52.082;5.426;2023-01-08T04:43:25;8.40;99.90
67890;DHT22;54685;52.082;5.426;2023-01-08T04:45:55;8.40;99.90
67890;DHT22;54685;52.082;5.426;2023-01-08T04:48:22;8.40;99.90
67890;DHT22;54685;52.082;5.426;2023-01-08T04:50:49;8.40;99.90
67890;DHT22;54685;52.082;5.426;2023-01-08T04:53:16;8.40;99.90
67890;DHT22;54685;52.082;5.426;2023-01-08T04:55:43;8.40;99.90
67890;DHT22;54685;52.082;5.426;2023-01-08T04:58:10;8.30;99.90
67890;DHT22;54685;52.082;5.426;2023-01-08T05:00:38;8.30;99.90
67890;DHT22;54685;52.082;5.426;2023-01-08T05:03:05;8.30;99.90
67890;DHT22;54685;52.082;5.426;2023-01-08T05:05:33;8.30;99.90
67890;DHT22;54685;52.082;5.426;2023-01-08T05:08:00;8.30;99.90
67890;DHT22;54685;52.082;5.426;2023-01-08T05:10:27;8.20;99.90
67890;DHT22;54685;52.082;5.426;2023-01-08T05:12:58;8.30;99.90
67890;DHT22;54685;52.082;5.426;2023-01-08T05:15:25;8.20;99.90
67890;DHT22;54685;52.082;5.426;2023-01-08T05:18:00;8.20;99.90
67890;DHT22;54685;52.082;5.426;2023-01-08T05:20:28;8.20;99.90
67890;DHT22;54685;52.082;5.426;2023-01-08T05:22:55;8.20;99.90
67890;DHT22;54685;52.082;5.426;2023-01-08T05:25:21;8.20;99.90
67890;DHT22;54685;52.082;5.426;2023-01-08T05:27:48;8.20;99.90
67890;DHT22;54685;52.082;5.426;2023-01-08T05:30:15;8.20;99.90
67890;DHT22;54685;52.082;5.426;2023-01-08T05:32:42;8.10;99.90
67890;DHT22;54685;52.082;5.426;2023-01-08T05:35:09;8.10;99.90
67890;DHT22;54685;52.082;5.426;2023-01-08T05:37:36;8.10;99.90
67890;DHT22;54685;52.082;5.426;2023-01-08T05:40:04;8.10;99.90
67890;DHT22;54685;52.082;5.426;2023-01-08T05:42:33;8.10;99.90
67890;DHT22;54685;52.082;5.426;2023-01-08T05:45:01;8.00;99.90
67890;DHT22;54685;52.082;5.426;2023-01-08T05:47:33;8.00;99.90
67890;DHT22;54685;52.082;5.426;2023-01-08T05:50:00;8.00;99.90
67890;DHT22;54685;52.082;5.426;2023-01-08T05:52:27;8.00;99.90
67890;DHT22;54685;52.082;5.426;2023-01-08T05:54:54;8.00;99.90
67890;DHT22;54685;52.082;5.426;2023-01-08T05:57:21;7.90;99.90
67890;DHT22;54685;52.082;5.426;2023-01-08T05:59:48;7.90;99.90
67890;DHT22;54685;52.082;5.426;2023-01-08T06:02:15;7.90;99.90
67890;DHT22;54685;52.082;5.426;2023-01-08T06:04:42;7.90;99.90
67890;DHT22;54685;52.082;5.426;2023-01-08T06:07:09;7.90;99.90
67890;DHT22;54685;52.082;5.426;2023-01-08T06:09:36;7.80;99.90
67890;DHT22;54685;52.082;5.426;2023-01-08T06:12:02;7.80;99.90
67890;DHT22;54685;52.082;5.426;2023-01-08T06:14:29;7.80;99.90
67890;DHT22;54685;52.082;5.426;2023-01-08T06:16:56;7.80;99.90
67890;DHT22;54685;52.082;5.426;2023-01-08T06:19:23;7.70;99.90
67890;DHT22;54685;52.082;5.426;2023-01-08T06:21:50;7.70;99.90
67890;DHT22;54685;52.082;5.426;2023-01-08T06:24:17;7.70;99.90
67890;DHT22;54685;52.082;5.426;2023-01-08T06:26:44;7.70;99.90
67890;DHT22;54685;52.082;5.426;2023-01-08T06:29:11;7.60;99.90
67890;DHT22;54685;52.082;5.426;2023-01-08T06:31:38;7.60;99.90
67890;DHT22;54685;52.082;5.426;2023-01-08T06:34:05;7.60;99.90
67890;DHT22;54685;52.082;5.426;2023-01-08T06:36:32;7.50;99.90
67890;DHT22;54685;52.082;5.426;2023-01-08T06:38:59;7.50;99.90
67890;DHT22;54685;52.082;5.426;2023-01-08T06:41:25;7.50;99.90
67890;DHT22;54685;52.082;5.426;2023-01-08T06:43:52;7.40;99.90
67890;DHT22;54685;52.082;5.426;2023-01-08T06:46:19;7.40;99.90
67890;DHT22;54685;52.082;5.426;2023-01-08T06:48:46;7.40;99.90
67890;DHT22;54685;52.082;5.426;2023-01-08T06:51:12;7.40;99.90
67890;DHT22;54685;52.082;5.426;2023-01-08T06:53:39;7.30;99.90
67890;DHT22;54685;52.082;5.426;2023-01-08T06:56:06;7.30;99.90
67890;DHT22;54685;52.082;5.426;2023-01-08T06:58:36;7.30;99.90
67890;DHT22;54685;52.082;5.426;2023-01-08T07:01:03;7.20;99.90
67890;DHT22;54685;52.082;5.426;2023-01-08T07:03:30;7.20;99.90
67890;DHT22;54685;52.082;5.426;2023-01-08T07:05:57;7.20;99.90
67890;DHT22;54685;52.082;5.426;2023-01-08T07:08:24;7.20;99.90
67890;DHT22;54685;52.082;5.426;2023-01-08T07:10:50;7.10;99.90
67890;DHT22;54685;52.082;5.426;2023-01-08T07:13:17;7.10;99.90
67890;DHT22;54685;52.082;5.426;2023-01-08T07:15:44;7.10;99.90
67890;DHT22;54685;52.082;5.426;2023-01-08T07:18:11;7.10;99.90
67890;DHT22;54685;52.082;5.426;2023-01-08T07:20:38;7.10;99.90
67890;DHT22;54685;52.082;5.426;2023-01-08T07:23:08;7.00;99.90
67890;DHT22;54685;52.082;5.426;2023-01-08T07:25:35;7.10;99.90
67890;DHT22;54685;52.082;5.426;2023-01-08T07:28:02;7.00;99.90
67890;DHT22;54685;52.082;5.426;2023-01-08T07:30:29;7.00;99.90
67890;DHT22;54685;52.082;5.426;2023-01-08T07:32:57;7.00;99.90
67890;DHT22;54685;52.082;5.426;2023-01-08T07:35:25;7.00;99.90
67890;DHT22;54685;52.082;5.426;2023-01-08T07:37:51;7.00;99.90
67890;DHT22;54685;52.082;5.426;2023-01-08T07:40:18;7.00;99.90
67890;DHT22;54685;52.082;5.426;2023-01-08T07:42:45;7.00;99.90
67890;DHT22;54685;52.082;5.426;2023-01-08T07:45:11;7.00;99.90
67890;DHT22;54685;52.082;5.426;2023-01-08T07:47:38;7.00;99.90
67890;DHT22;54685;52.082;5.426;2023-01-08T07:50:05;7.00;99.90
67890;DHT22;54685;52.082;5.426;2023-01-08T07:52:32;7.00;99.90
67890;DHT22;54685;52.082;5.426;2023-01-08T07:54:59;6.90;99.90
67890;DHT22;54685;52.082;5.426;2023-01-08T07:57:28;6.90;99.90
67890;DHT22;54685;52.082;5.426;2023-01-08T07:59:55;6.90;99.90
67890;DHT22;54685;52.082;5.426;2023-01-08T08:02:22;6.90;99.90
67890;DHT22;54685;52.082;5.426;2023-01-08T08:04:49;6.80;99.90
67890;DHT22;54685;52.082;5.426;2023-01-08T08:07:16;6.80;99.90
67890;DHT22;54685;52.082;5.426;2023-01-08T08:09:42;6.80;99.90
67890;DHT22;54685;52.082;5.426;2023-01-08T08:12:09;6.80;99.90
67890;DHT22;54685;52.082;5.426;2023-01-08T08:14:36;6.80;99.90
67890;DHT22;54685;52.082;5.426;2023-01-08T08:17:03;6.80;99.90
67890;DHT22;54685;52.082;5.426;2023-01-08T08:19:30;6.70;99.90
67890;DHT22;54685;52.082;5.426;2023-01-08T08:21:56;6.80;99.90
67890;DHT22;54685;52.082;5.426;2023-01-08T08:24:23;6.80;99.90
67890;DHT22;54685;52.082;5.426;2023-01-08T08:26:53;6.80;99.90
67890;DHT22;54685;52.082;5.426;2023-01-08T08:29:20;6.80;99.90
67890;DHT22;54685;52.082;5.426;2023-01-08T08:31:47;6.80;99.90
67890;DHT22;54685;52.082;5.426;2023-01-08T08:34:13;6.80;99.90
67890;DHT22;54685;52.082;5.426;2023-01-08T08:36:40;6.80;99.90
67890;DHT22;54685;52.082;5.426;2023-01-08T08:39:12;6.80;99.90
67890;DHT22;54685;52.082;5.426;2023-01-08T08:41:48;6.80;99.90
67890;DHT22;54685;52.082;5.426;2023-01-08T08:44:14;6.80;99.90
67890;DHT22;54685;52.082;5.426;2023-01-08T08:46:41;6.80;99.90
67890;DHT22;54685;52.082;5.426;2023-01-08T08:49:08;6.80;99.90
67890;DHT22;54685;52.082;5.426;2023-01-08T08:51:38;6.80;99.90
67890;DHT22;54685;52.082;5.426;2023-01-08T08:54:07;6.80;99.90
67890;DHT22;54685;52.082;5.426;2023-01-08T08:56:33;6.80;99.90
67890;DHT22;54685;52.082;5.426;2023-01-08T08:59:00;6.80;99.90
67890;DHT22;54685;52.082;5.426;2023-01-08T09:01:28;6.80;99.90
67890;DHT22;54685;52.082;5.426;2023-01-08T09:03:56;6.70;99.90
67890;DHT22;54685;52.082;5.426;2023-01-08T09:06:25;6.70;99.90
67890;DHT22;54685;52.082;5.426;2023-01-08T09:08:53;6.70;99.90
67890;DHT22;54685;52.082;5.426;2023-01-08T09:11:21;6.70;99.90
67890;DHT22;54685;52.082;5.426;2023-01-08T09:13:47;6.70;99.90
67890;DHT22;54685;52.082;5.426;2023-01-08T09:16:17;6.80;99.90
67890;DHT22;54685;52.082;5.426;2023-01-08T09:18:44;6.80;99.90
67890;DHT22;54685;52.082;5.426;2023-01-08T09:21:11;6.90;99.90
67890;DHT22;54685;52.082;5.426;2023-01-08T09:23:37;6.90;99.90
67890;DHT22;54685;52.082;5.426;2023-01-08T09:26:05;6.90;99.90
67890;DHT22;54685;52.082;5.426;2023-01-08T09:28:32;6.90;99.90
67890;DHT22;54685;52.082;5.426;2023-01-08T09:31:02;7.00;99.90
67890;DHT22;54685;52.082;5.426;2023-01-08T09:33:30;7.00;99.90
67890;DHT22;54685;52.082;5.426;2023-01-08T09:35:57;7.00;99.90
67890;DHT22;54685;52.082;5.426;2023-01-08T09:38:24;7.10;99.90
67890;DHT22;54685;52.082;5.426;2023-01-08T09:40:53;7.20;99.90
67890;DHT22;54685;52.082;5.426;2023-01-08T09:43:22;7.20;99.90
67890;DHT22;54685;52.082;5.426;2023-01-08T09:45:53;7.20;99.90
67890;DHT22;54685;52.082;5.426;2023-01-08T09:48:24;7.20;99.90
67890;DHT22;54685;52.082;5.426;2023-01-08T09:50:51;7.30;99.90
67890;DHT22;54685;52.082;5.426;2023-01-08T09:53:19;7.40;99.90
67890;DHT22;54685;52.082;5.426;2023-01-08T09:55:54;7.40;99.90
67890;DHT22;54685;52.082;5.426;2023-01-08T09:58:47;7.40;99.90
67890;DHT22;54685;52.082;5.426;2023-01-08T10:01:21;7.50;99.90
67890;DHT22;54685;52.082;5.426;2023-01-08T10:04:10;7.60;99.90
67890;DHT22;54685;52.082;5.426;2023-01-08T10:06:40;7.60;99.90
67890;DHT22;54685;52.082;5.426;2023-01-08T10:09:12;7.70;99.90
67890;DHT22;54685;52.082;5.426;2023-01-08T10:11:41;7.70;99.90
67890;DHT22;54685;52.082;5.426;2023-01-08T10:14:21;7.80;99.90
67890;DHT22;54685;52.082;5.426;2023-01-08T10:16:55;7.80;99.90
67890;DHT22;54685;52.082;5.426;2023-01-08T10:19:23;7.90;99.90
67890;DHT22;54685;52.082;5.426;2023-01-08T10:21:50;7.90;99.90
67890;DHT22;54685;52.082;5.426;2023-01-08T10:24:30;7.90;99.90
67890;DHT22;54685;52.082;5.426;2023-01-08T10:27:05;8.00;99.90
67890;DHT22;54685;52.082;5.426;2023-01-08T10:29:33;8.10;99.90
67890;DHT22;54685;52.082;5.426;2023-01-08T10:34:56;8.20;99.90
67890;DHT22;54685;52.082;5.426;2023-01-08T10:37:28;8.20;99.90
67890;DHT22;54685;52.082;5.426;2023-01-08T10:40:05;8.20;99.90
67890;DHT22;54685;52.082;5.426;2023-01-08T10:42:34;8.30;99.90
67890;DHT22;54685;52.082;5.426;2023-01-08T10:45:05;8.40;99.90
67890;DHT22;54685;52.082;5.426;2023-01-08T10:47:37;8.40;99.90
67890;DHT22;54685;52.082;5.426;2023-01-08T10:50:16;8.50;99.90
67890;DHT22;54685;52.082;5.426;2023-01-08T10:52:52;8.60;99.90
67890;DHT22;54685;52.082;5.426;2023-01-08T10:55:24;8.70;99.90
67890;DHT22;54685;52.082;5.426;2023-01-08T10:57:54;9.00;99.90
67890;DHT22;54685;52.082;5.426;2023-01-08T11:00:29;9.20;99.90
67890;DHT22;54685;52.082;5.426;2023-01-08T11:02:59;9.20;99.90
67890;DHT22;54685;52.082;5.426;2023-01-08T11:05:39;9.20;99.90
67890;DHT22;54685;52.082;5.426;2023-01-08T11:08:16;9.30;99.90
67890;DHT22;54685;52.082;5.426;2023-01-08T11:10:57;9.50;99.90
67890;DHT22;54685;52.082;5.426;2023-01-08T11:13:25;10.10;99.90
67890;DHT22;54685;52.082;5.426;2023-01-08T11:16:04;10.70;99.90
67890;DHT22;54685;52.082;5.426;2023-01-08T11:18:45;11.20;99.90
67890;DHT22;54685;52.082;5.426;2023-01-08T11:21:20;11.20;99.90
67890;DHT22;54685;52.082;5.426;2023-01-08T11:26:31;12.00;99.90
67890;DHT22;54685;52.082;5.426;2023-01-08T11:29:06;12.30;99.90
67890;DHT22;54685;52.082;5.426;2023-01-08T11:32:07;12.60;99.90
67890;DHT22;54685;52.082;5.426;2023-01-08T11:34:58;12.80;99.90
67890;DHT22;54685;52.082;5.426;2023-01-08T11:37:29;13.10;99.90
67890;DHT22;54685;52.082;5.426;2023-01-08T11:39:58;13.20;99.90
67890;DHT22;54685;52.082;5.426;2023-01-08T11:50:48;12.60;99.90
67890;DHT22;54685;52.082;5.426;2023-01-08T11:53:42;12.80;99.90
67890;DHT22;54685;52.082;5.426;2023-01-08T11:56:46;13.00;99.90
67890;DHT22;54685;52.082;5.426;2023-01-08T12:05:55;14.20;99.90
67890;DHT22;54685;52.082;5.426;2023-01-08T12:11:23;14.40;99.90
67890;DHT22;54685;52.082;5.426;2023-01-08T12:22:43;15.50;99.90
67890;DHT22;54685;52.082;5.426;2023-01-08T12:25:48;15.20;97.70
67890;DHT22;54685;52.082;5.426;2023-01-08T12:31:53;15.00;99.90
67890;DHT22;54685;52.082;5.426;2023-01-08T12:37:08;13.30;99.90
67890;DHT22;54685;52.082;5.426;2023-01-08T12:39:51;12.60;99.90
67890;DHT22;54685;52.082;5.426;2023-01-08T12:42:21;12.10;99.90
67890;DHT22;54685;52.082;5.426;2023-01-08T12:44:54;11.70;99.90
67890;DHT22;54685;52.082;5.426;2023-01-08T12:47:26;11.60;99.90
67890;DHT22;54685;52.082;5.426;2023-01-08T12:50:15;11.50;99.90
67890;DHT22;54685;52.082;5.426;2023-01-08T12:52:51;11.40;99.90
67890;DHT22;54685;52.082;5.426;2023-01-08T12:55:40;11.30;99.90
67890;DHT22;54685;52.082;5.426;2023-01-08T12:58:36;11.50;99.90
67890;DHT22;54685;52.082;5.426;2023-01-08T13:01:15;12.10;99.90
67890;DHT22;54685;52.082;5.426;2023-01-08T13:03:47;12.40;99.90
67890;DHT22;54685;52.082;5.426;2023-01-08T13:06:16;12.70;99.90
67890;DHT22;54685;52.082;5.426;2023-01-08T13:08:49;12.60;99.90
67890;DHT22;54685;52.082;5.426;2023-01-08T13:11:34;12.30;99.90
67890;DHT22;54685;52.082;5.426;2023-01-08T13:14:10;12.00;99.90
67890;DHT22;54685;52.082;5.426;2023-01-08T13:16:39;11.70;99.90
67890;DHT22;54685;52.082;5.426;2023-01-08T13:19:26;11.80;99.90
67890;DHT22;54685;52.082;5.426;2023-01-08T13:21:55;12.00;99.90
67890;DHT22;54685;52.082;5.426;2023-01-08T13:24:34;12.40;99.90
67890;DHT22;54685;52.082;5.426;2023-01-08T13:27:27;13.00;99.90
67890;DHT22;54685;52.082;5.426;2023-01-08T13:29:55;13.30;99.90
67890;DHT22;54685;52.082;5.426;2023-01-08T13:32:45;13.00;99.90
67890;DHT22;54685;52.082;5.426;2023-01-08T13:37:47;12.80;99.90
67890;DHT22;54685;52.082;5.426;2023-01-08T13:43:11;13.50;99.90
67890;DHT22;54685;52.082;5.426;2023-01-08T13:45:39;13.60;99.90
67890;DHT22;54685;52.082;5.426;2023-01-08T13:48:23;13.60;99.90
67890;DHT22;54685;52.082;5.426;2023-01-08T13:50:51;13.40;99.90
67890;DHT22;54685;52.082;5.426;2023-01-08T13:53:19;12.90;99.90
67890;DHT22;54685;52.082;5.426;2023-01-08T13:58:45;12.10;99.90
67890;DHT22;54685;52.082;5.426;2023-01-08T14:01:22;11.80;99.90
67890;DHT22;54685;52.082;5.426;2023-01-08T14:03:49;11.50;99.90
67890;DHT22;54685;52.082;5.426;2023-01-08T14:06:19;11.30;99.90
67890;DHT22;54685;52.082;5.426;2023-01-08T14:09:04;11.20;99.90
67890;DHT22;54685;52.082;5.426;2023-01-08T14:11:40;11.10;99.90
67890;DHT22;54685;52.082;5.426;2023-01-08T14:14:12;10.90;99.90
67890;DHT22;54685;52.082;5.426;2023-01-08T14:16:40;10.80;99.90
67890;DHT22;54685;52.082;5.426;2023-01-08T14:19:07;10.70;99.90
67890;DHT22;54685;52.082;5.426;2023-01-08T14:21:37;10.60;99.90
67890;DHT22;54685;52.082;5.426;2023-01-08T14:24:05;10.50;99.90
67890;DHT22;54685;52.082;5.426;2023-01-08T14:26:36;10.50;99.90
67890;DHT22;54685;52.082;5.426;2023-01-08T14:29:13;10.50;99.90
67890;DHT22;54685;52.082;5.426;2023-01-08T14:31:52;10.40;99.90
67890;DHT22;54685;52.082;5.426;2023-01-08T14:34:22;10.40;99.90
67890;DHT22;54685;52.082;5.426;2023-01-08T14:36:51;10.30;99.90
67890;DHT22;54685;52.082;5.426;2023-01-08T14:39:31;10.30;99.90
67890;DHT22;54685;52.082;5.426;2023-01-08T14:42:08;10.30;99.90
67890;DHT22;54685;52.082;5.426;2023-01-08T14:47:39;10.20;99.90
67890;DHT22;54685;52.082;5.426;2023-01-08T14:50:20;10.10;99.90
67890;DHT22;54685;52.082;5.426;2023-01-08T14:52:49;10.20;99.90
67890;DHT22;54685;52.082;5.426;2023-01-08T14:55:17;10.10;99.90
67890;DHT22;54685;52.082;5.426;2023-01-08T14:57:46;10.10;99.90
67890;DHT22;54685;52.082;5.426;2023-01-08T15:00:20;10.10;99.90
67890;DHT22;54685;52.082;5.426;2023-01-08T15:02:48;10.00;99.90
67890;DHT22;54685;52.082;5.426;2023-01-08T15:05:29;10.00;99.90
67890;DHT22;54685;52.082;5.426;2023-01-08T15:11:01;10.00;99.90
67890;DHT22;54685;52.082;5.426;2023-01-08T15:13:34;9.90;99.90
67890;DHT22;54685;52.082;5.426;2023-01-08T15:16:04;9.90;99.90
67890;DHT22;54685;52.082;5.426;2023-01-08T15:18:41;9.80;99.90
67890;DHT22;54685;52.082;5.426;2023-01-08T15:21:09;9.80;99.90
67890;DHT22;54685;52.082;5.426;2023-01-08T15:23:40;9.70;99.90
67890;DHT22;54685;52.082;5.426;2023-01-08T15:26:12;9.60;99.90
67890;DHT22;54685;52.082;5.426;2023-01-08T15:31:25;9.50;99.90
67890;DHT22;54685;52.082;5.426;2023-01-08T15:33:53;9.40;99.90
67890;DHT22;54685;52.082;5.426;2023-01-08T15:36:20;9.40;99.90
67890;DHT22;54685;52.082;5.426;2023-01-08T15:38:48;9.30;99.90
67890;DHT22;54685;52.082;5.426;2023-01-08T15:41:20;9.30;99.90
67890;DHT22;54685;52.082;5.426;2023-01-08T15:44:10;9.20;99.90
67890;DHT22;54685;52.082;5.426;2023-01-08T15:46:40;9.20;99.90
67890;DHT22;54685;52.082;5.426;2023-01-08T15:49:07;9.10;99.90
67890;DHT22;54685;52.082;5.426;2023-01-08T15:51:37;9.10;99.90
67890;DHT22;54685;52.082;5.426;2023-01-08T15:54:11;9.00;99.90
67890;DHT22;54685;52.082;5.426;2023-01-08T15:56:38;9.00;99.90
67890;DHT22;54685;52.082;5.426;2023-01-08T15:59:05;8.90;99.90
67890;DHT22;54685;52.082;5.426;2023-01-08T16:01:33;8.90;99.90
67890;DHT22;54685;52.082;5.426;2023-01-08T16:04:00;8.90;99.90
67890;DHT22;54685;52.082;5.426;2023-01-08T16:06:26;8.80;99.90
67890;DHT22;54685;52.082;5.426;2023-01-08T16:08:53;8.80;99.90
67890;DHT22;54685;52.082;5.426;2023-01-08T16:11:23;8.70;99.90
67890;DHT22;54685;52.082;5.426;2023-01-08T16:13:50;8.70;99.90
67890;DHT22;54685;52.082;5.426;2023-01-08T16:16:17;8.60;99.90
67890;DHT22;54685;52.082;5.426;2023-01-08T16:18:46;8.60;99.90
67890;DHT22;54685;52.082;5.426;2023-01-08T16:21:13;8.60;99.90
67890;DHT22;54685;52.082;5.426;2023-01-08T16:23:40;8.60;99.90
67890;DHT22;54685;52.082;5.426;2023-01-08T16:26:09;8.50;99.90
67890;DHT22;54685;52.082;5.426;2023-01-08T16:28:36;8.50;99.90
67890;DHT22;54685;52.082;5.426;2023-01-08T16:31:03;8.40;99.90
67890;DHT22;54685;52.082;5.426;2023-01-08T16:33:30;8.40;99.90
67890;DHT22;54685;52.082;5.426;2023-01-08T16:36:05;8.40;99.90
67890;DHT22;54685;52.082;5.426;2023-01-08T16:38:33;8.40;99.90
67890;DHT22;54685;52.082;5.426;2023-01-08T16:41:01;8.30;99.90
67890;DHT22;54685;52.082;5.426;2023-01-08T16:43:29;8.30;99.90
67890;DHT22;54685;52.082;5.426;2023-01-08T16:45:56;8.30;99.90
67890;DHT22;54685;52.082;5.426;2023-01-08T16:48:28;8.30;99.90
67890;DHT22;54685;52.082;5.426;2023-01-08T16:51:03;8.30;99.90
67890;DHT22;54685;52.082;5.426;2023-01-08T16:53:30;8.20;99.90
67890;DHT22;54685;52.082;5.426;2023-01-08T16:55:58;8.20;99.90
67890;DHT22;54685;52.082;5.426;2023-01-08T16:58:25;8.20;99.90
67890;DHT22;54685;52.082;5.426;2023-01-08T17:00:52;8.20;99.90
67890;DHT22;54685;52.082;5.426;2023-01-08T17:03:19;8.20;99.90
67890;DHT22;54685;52.082;5.426;2023-01-08T17:05:47;8.20;99.90
67890;DHT22;54685;52.082;5.426;2023-01-08T17:08:14;8.30;99.90
67890;DHT22;54685;52.082;5.426;2023-01-08T17:10:42;8.30;99.90
67890;DHT22;54685;52.082;5.426;2023-01-08T17:13:09;8.40;99.90
67890;DHT22;54685;52.082;5.426;2023-01-08T17:15:36;8.40;99.90